My Meet Scores
Brooke Benton, St. Charles Gymnastics Academy - MyMeetScores.com
Top100 | Top Teams | Upcoming Meets | Completed Meets | Latest | Add Scores | Help| Support | Bookmark and Share

Brooke Benton, St. Charles Gymnastics Academy
Personal Bests
LevelVault BarsBeamFloorAA
38.3758.375 8.1508.42533.325
48.4259.400 9.0758.25034.525
XP9.1009.425 9.2008.77536.050
Meet Scores
Date Meet Team Session Level Division Vault Bars Beam Floor AA
2019-05-03 2019 Region 5 Xcel Championships St. Charles Gymnastics Academy 02D XP JR A 8.975 27T 8.650 20T 8.700 24T 8.375 33 34.700 30
2019-04-05 2019 Illinois XG, XP, XD State Championships St. Charles Gymnastics Academy 2 XP Jr A 9.100 17T 9.025 10 9.200 15 8.725 21 36.050 13T
2019-03-01 NGCD Academy's 2019 Flip'r Invitational St. Charles Gymnastics Academy 1 XP Jr A 8.900 8 9.250 2 8.475 7 8.675 8 35.300 5
2019-02-15 Women's Midwest Open St. Charles Gymnastics Academy 04 XP Junior A 8.275 15 9.425 3 7.650 15 8.050 15 33.400 15
2019-01-11 St Jude Benefit Meet St. Charles Gymnastics Academy 1C XP Jr A 8.700 10 8.150 9 7.900 13 8.775 10T 33.525 12
2018-12-07 St. Nick Invite 2018 St. Charles Gymnastics Academy 2 XP Jr 8.300 13 8.100 10 7.675 13 8.400 12 32.475 11
2018-03-08 Level 4 & 5 State St. Charles Gymnastics Academy All 4 Jr B 8.400 26 9.150 11 8.750 24 8.025 29 34.325 24T
2018-02-23 Kinetic Classic St. Charles Gymnastics Academy 7 4 Older 8.050 63T 9.175 18T 8.775 59T 7.550 91 33.550 70
2018-02-16 Big Classic St. Charles Gymnastics Academy 7B 4 Child C 8.175 11 9.400 6 9.075 11 7.875 16 34.525 11
2018-01-26 King Arthur Invitational St. Charles Gymnastics Academy 6 4 SR A 8.425 18T 8.850 11T 8.650 17 7.400 23 33.325 19
2018-01-12 St Jude Benefit Meet St. Charles Gymnastics Academy 2A 4 SrA 8.200 14T 9.225 9 8.700 17 0.000 19 26.125 19
2017-12-14 2017 Women's Hawaiian Pineapple Classic St. Charles Gymnastics Academy 6A 4 Age10 7.600 18 8.525 8 7.800 14 0.000 23 23.925 22
2017-11-17 SCGA Classic St. Charles Gymnastics Academy 2 4 JrB 8.275 10 8.925 6 8.650 10 0.000 9 25.850 14
2017-02-24 Kinetic Classic St. Charles Gymnastics Academy 5,6 4 All Ages 7.700 121T 8.000 106T 8.675 103T 7.650 129 32.025 120
2017-02-10 IGI Chicago Style Gymnastics Meet St. Charles Gymnastics Academy 621L 4 JrA 7.725 19 7.750 17 7.850 20 7.200 21 30.525 19
2017-01-20 2017 Bravo Classic St. Charles Gymnastics Academy 06B 4 9yrs 7.550 17 8.200 14T 8.850 14 7.525 18 32.125 16
2017-01-13 St Jude Benefit Meet St. Charles Gymnastics Academy 3A 4 Jr B 7.400 16 8.350 12 8.550 10T 7.425 17 31.725 13T
2016-12-15 2016 Hawaiian Pineapple Sanction St. Charles Gymnastics Academy 9A 4 Age 9 8.000 22 7.275 19 8.350 21 8.250 20 31.875 21
2016-12-02 Ultimate Wish Classic St. Charles Gymnastics Academy 13 4 Jr B 8.150 21T 8.050 14 8.500 19 8.200 20 32.900 16
2016-01-22 King Arthur Invitational St. Charles Gymnastics Academy S7 3 Jr.B 8.375 18 8.375 11 8.150 15 8.425 13 33.325 15
Get your scores on
a t-shirt, pin, or hoodie

Order by December 12

www.lazysuits.com